M I D A S
Marine Information and Data Acquisition System
Tripno 2280 of the Zeeleeuw from 2012-03-26 06:45:06 to 2012-03-26 15:07:12
Back to CruiseResearch ActivitiesStationsMapUnderway DataData graphs

EquipmentUnitsComment
TimeDGPSUTC
LatitudeDGPSDM.mWGS84
LongitudeDGPSDM.mWGS84
HeadingGyrodeg 
SOGDGPSknotsSpeed over ground
COGDGPSdegCourse over ground
DepthEcho soundermeters200 kHz
Missing or incorrect values are displayed as -999
Navigation data collected by the RV Zeeleeuw from 2012-03-26 06:21:21 to 2012-03-26 15:28:32
                                                                                    Next 1000 lines
Time Latitude Longitude Heading SOG COG Depth
2012-03-26 06:21:31 51°13.638 2°56.021 126.4 0.1 17 -999
2012-03-26 06:21:36 51°13.638 2°56.021 126.4 0.1 212 -999
2012-03-26 06:21:41 51°13.638 2°56.021 126.4 0.1 210 -999
2012-03-26 06:21:46 51°13.638 2°56.021 126.3 0.1 210 -999
2012-03-26 06:21:51 51°13.638 2°56.021 126.3 0.1 208 -999
2012-03-26 06:21:56 51°13.638 2°56.021 -999 0.2 208 -999
2012-03-26 06:22:01 51°13.638 2°56.021 126.2 -999 241 -999
2012-03-26 06:22:06 51°13.638 2°56.021 126.1 0.1 23 -999
2012-03-26 06:22:11 51°13.638 2°56.021 126 -999 279 -999
2012-03-26 06:22:16 51°13.638 2°56.021 126 -999 30 -999
2012-03-26 06:22:21 51°13.638 2°56.021 126 -999 192 -999
2012-03-26 06:22:26 51°13.638 2°56.021 126 -999 41 -999
2012-03-26 06:22:31 51°13.638 2°56.021 126 -999 308 -999
2012-03-26 06:22:36 51°13.638 2°56.021 126.1 -999 352 -999
2012-03-26 06:22:41 51°13.638 2°56.021 126.2 0.1 26 -999
2012-03-26 06:22:46 51°13.638 2°56.021 126.2 0.1 201 -999
2012-03-26 06:22:51 51°13.638 2°56.021 126.2 -999 221 -999
2012-03-26 06:22:56 51°13.638 2°56.021 126.2 -999 214 -999
2012-03-26 06:23:01 51°13.638 2°56.021 126.2 0.1 209 -999
2012-03-26 06:23:06 51°13.637 2°56.021 126.2 -999 210 -999
2012-03-26 06:23:11 51°13.638 2°56.021 126.2 -999 278 -999
2012-03-26 06:23:15 51°13.638 2°56.021 126.2 -999 32 -999
2012-03-26 06:23:21 51°13.638 2°56.021 126.2 0.1 19 -999
2012-03-26 06:23:26 51°13.638 2°56.021 126.2 0.1 -999 -999
2012-03-26 06:23:31 51°13.637 2°56.021 126.2 -999 277 -999
2012-03-26 06:23:35 51°13.637 2°56.021 126.2 -999 305 -999
2012-03-26 06:23:41 51°13.637 2°56.02 126.2 0.1 206 -999
2012-03-26 06:23:46 51°13.637 2°56.02 126.2 -999 300 -999
2012-03-26 06:23:51 51°13.637 2°56.02 126.2 0.1 3 -999
2012-03-26 06:23:55 51°13.637 2°56.02 126.2 0.2 18 -999
2012-03-26 06:24:01 51°13.637 2°56.02 126.2 0.1 14 -999
2012-03-26 06:24:06 51°13.636 2°56.02 126.3 0.1 201 -999
2012-03-26 06:24:11 51°13.636 2°56.02 126.3 0.1 212 -999
2012-03-26 06:24:15 51°13.636 2°56.02 126.2 0.1 216 -999
2012-03-26 06:24:21 51°13.636 2°56.02 126.1 0.1 219 -999
2012-03-26 06:24:26 51°13.636 2°56.02 126.1 -999 11 -999
2012-03-26 06:24:31 51°13.636 2°56.02 126 0.1 15 -999
2012-03-26 06:24:36 51°13.636 2°56.02 126 0.1 39 -999
2012-03-26 06:24:41 51°13.636 2°56.019 126 0.1 205 -999
2012-03-26 06:24:46 51°13.636 2°56.02 126 -999 299 -999
2012-03-26 06:24:51 51°13.637 2°56.02 126 0.2 19 -999
2012-03-26 06:24:56 51°13.637 2°56.02 126 0.1 12 -999
2012-03-26 06:25:01 51°13.636 2°56.02 126 -999 353 -999
2012-03-26 06:25:06 51°13.636 2°56.02 126.1 -999 348 -999
2012-03-26 06:25:11 51°13.636 2°56.02 126.1 -999 173 -999
2012-03-26 06:25:16 51°13.636 2°56.02 126.1 0.1 209 -999
2012-03-26 06:25:21 51°13.636 2°56.02 126.1 -999 95 -999
2012-03-26 06:25:26 51°13.636 2°56.02 126.2 -999 190 -999
2012-03-26 06:25:31 51°13.637 2°56.021 126.2 0.1 19 -999
2012-03-26 06:25:35 51°13.636 2°56.021 126.2 -999 183 -999
2012-03-26 06:25:41 51°13.636 2°56.02 126.2 -999 214 -999
2012-03-26 06:25:46 51°13.636 2°56.02 126.2 -999 219 -999
2012-03-26 06:25:51 51°13.636 2°56.02 126.2 -999 242 -999
2012-03-26 06:25:55 51°13.636 2°56.02 126.2 0.1 201 -999
2012-03-26 06:26:01 51°13.636 2°56.02 126.2 -999 210 -999
2012-03-26 06:26:06 51°13.636 2°56.02 126.2 -999 228 -999
2012-03-26 06:26:11 51°13.636 2°56.02 126.2 -999 74 -999
2012-03-26 06:26:15 51°13.636 2°56.02 126.2 -999 338 -999
2012-03-26 06:26:21 51°13.636 2°56.021 126.2 0.1 20 -999
2012-03-26 06:26:26 51°13.636 2°56.02 126.2 -999 159 -999
2012-03-26 06:26:31 51°13.636 2°56.02 126.2 -999 56 -999
2012-03-26 06:26:35 51°13.636 2°56.02 126.2 0.1 12 -999
2012-03-26 06:26:41 51°13.636 2°56.02 126.2 0.1 278 -999
2012-03-26 06:26:46 51°13.636 2°56.02 126.2 -999 196 -999
2012-03-26 06:26:51 51°13.636 2°56.02 126.2 -999 10 -999
2012-03-26 06:26:56 51°13.636 2°56.02 126.2 0.1 200 -999
2012-03-26 06:27:01 51°13.636 2°56.02 126.2 0.1 23 -999
2012-03-26 06:27:06 51°13.636 2°56.02 126.1 -999 252 -999
2012-03-26 06:27:11 51°13.636 2°56.02 125.9 0.1 185 -999
2012-03-26 06:27:16 51°13.636 2°56.02 125.9 0.1 174 -999
2012-03-26 06:27:21 51°13.636 2°56.02 125.8 0.1 204 -999
2012-03-26 06:27:26 51°13.636 2°56.02 125.7 -999 226 -999
2012-03-26 06:27:31 51°13.636 2°56.02 125.7 -999 192 -999
2012-03-26 06:27:36 51°13.636 2°56.02 125.6 -999 137 -999
2012-03-26 06:27:41 51°13.636 2°56.02 125.6 -999 214 -999
2012-03-26 06:27:46 51°13.636 2°56.02 125.6 0.1 221 -999
2012-03-26 06:27:51 51°13.636 2°56.019 125.7 0.1 226 -999
2012-03-26 06:27:55 51°13.636 2°56.019 125.7 0.1 225 -999
2012-03-26 06:28:01 51°13.636 2°56.02 125.7 0.1 349 -999
2012-03-26 06:28:06 51°13.636 2°56.02 125.7 -999 1 -999
2012-03-26 06:28:11 51°13.636 2°56.02 125.7 -999 167 -999
2012-03-26 06:28:15 51°13.636 2°56.02 125.7 -999 114 -999
2012-03-26 06:28:21 51°13.636 2°56.02 125.7 0.1 40 -999
2012-03-26 06:28:26 51°13.636 2°56.02 125.7 0.1 43 -999
2012-03-26 06:28:31 51°13.636 2°56.02 125.7 0.1 45 -999
2012-03-26 06:28:35 51°13.636 2°56.02 125.6 0.1 24 -999
2012-03-26 06:28:41 51°13.636 2°56.02 125.6 0.2 5 -999
2012-03-26 06:28:46 51°13.636 2°56.02 125.6 -999 95 -999
2012-03-26 06:28:51 51°13.636 2°56.02 125.6 0.1 206 -999
2012-03-26 06:28:56 51°13.636 2°56.02 125.6 0.1 20 -999
2012-03-26 06:29:01 51°13.636 2°56.02 125.6 -999 174 -999
2012-03-26 06:29:06 51°13.636 2°56.02 125.6 0.1 190 -999
2012-03-26 06:29:11 51°13.636 2°56.02 125.6 -999 186 -999
2012-03-26 06:29:15 51°13.636 2°56.02 125.5 0.1 14 -999
2012-03-26 06:29:21 51°13.636 2°56.02 125.5 0.1 1 -999
2012-03-26 06:29:26 51°13.636 2°56.02 125.5 -999 263 -999
2012-03-26 06:29:31 51°13.636 2°56.02 125.4 0.1 348 -999
2012-03-26 06:29:36 51°13.636 2°56.02 125.3 -999 20 -999
2012-03-26 06:29:41 51°13.636 2°56.02 125.2 -999 346 -999
2012-03-26 06:29:46 51°13.636 2°56.02 125.2 0.1 23 -999
2012-03-26 06:29:51 51°13.636 2°56.02 125.2 -999 63 -999
2012-03-26 06:29:56 51°13.635 2°56.02 125.2 0.1 183 -999
2012-03-26 06:30:01 51°13.635 2°56.02 125.2 0.1 210 -999
2012-03-26 06:30:06 51°13.635 2°56.02 125.2 0.1 175 -999
2012-03-26 06:30:11 51°13.635 2°56.02 125.2 0.1 176 -999
2012-03-26 06:30:15 51°13.635 2°56.02 125.3 -999 90 -999
2012-03-26 06:30:21 51°13.635 2°56.02 125.3 -999 182 -999
2012-03-26 06:30:26 51°13.635 2°56.02 125.3 -999 216 -999
2012-03-26 06:30:31 51°13.636 2°56.019 125.3 -999 -999 -999
2012-03-26 06:30:35 51°13.636 2°56.019 125.4 -999 23 -999
2012-03-26 06:30:41 51°13.636 2°56.019 125.4 0.1 22 -999
2012-03-26 06:30:46 51°13.637 2°56.019 125.4 0.1 5 -999
2012-03-26 06:30:51 51°13.637 2°56.019 125.5 0.1 2 -999
2012-03-26 06:30:55 51°13.637 2°56.019 125.5 -999 75 -999
2012-03-26 06:31:01 51°13.636 2°56.019 125.4 0.1 223 -999
2012-03-26 06:31:06 51°13.636 2°56.019 125.4 -999 352 -999
2012-03-26 06:31:11 51°13.636 2°56.019 125.4 -999 334 -999
2012-03-26 06:31:16 51°13.636 2°56.019 125.4 0.1 193 -999
2012-03-26 06:31:21 51°13.636 2°56.019 125.4 0.1 211 -999
2012-03-26 06:31:26 51°13.636 2°56.019 125.4 -999 167 -999
2012-03-26 06:31:31 51°13.636 2°56.019 125.4 0.1 206 -999
2012-03-26 06:31:36 51°13.636 2°56.019 125.4 0.1 13 -999
2012-03-26 06:31:41 51°13.636 2°56.019 125.5 0.1 23 -999
2012-03-26 06:31:46 51°13.636 2°56.019 125.5 0.2 213 -999
2012-03-26 06:31:51 51°13.636 2°56.019 125.5 0.1 9 -999
2012-03-26 06:31:56 51°13.636 2°56.019 125.5 0.1 220 -999
2012-03-26 06:32:01 51°13.636 2°56.019 125.6 -999 69 -999
2012-03-26 06:32:06 51°13.636 2°56.019 125.6 0.1 212 -999
2012-03-26 06:32:11 51°13.636 2°56.019 125.7 -999 293 -999
2012-03-26 06:32:16 51°13.636 2°56.019 125.7 -999 81 -999
2012-03-26 06:32:21 51°13.636 2°56.019 125.8 0.1 43 -999
2012-03-26 06:32:26 51°13.636 2°56.019 125.8 0.1 218 -999
2012-03-26 06:32:31 51°13.636 2°56.019 126 0.1 30 -999
2012-03-26 06:32:35 51°13.636 2°56.019 126.2 0.1 231 -999
2012-03-26 06:32:41 51°13.636 2°56.019 126.4 -999 297 -999
2012-03-26 06:32:46 51°13.636 2°56.019 126.4 0.1 217 -999
2012-03-26 06:32:51 51°13.636 2°56.019 126.4 0.2 27 -999
2012-03-26 06:32:55 51°13.636 2°56.019 126.5 -999 335 -999
2012-03-26 06:33:01 51°13.636 2°56.019 126.7 -999 14 -999
2012-03-26 06:33:06 51°13.636 2°56.019 126.8 -999 259 -999
2012-03-26 06:33:11 51°13.636 2°56.019 126.9 0.1 5 -999
2012-03-26 06:33:16 51°13.636 2°56.019 127 -999 105 -999
2012-03-26 06:33:21 51°13.636 2°56.019 127 -999 92 -999
2012-03-26 06:33:26 51°13.636 2°56.019 127 -999 231 -999
2012-03-26 06:33:31 51°13.636 2°56.019 126.9 -999 329 -999
2012-03-26 06:33:36 51°13.636 2°56.019 126.7 -999 260 -999
2012-03-26 06:33:41 51°13.636 2°56.019 126.6 -999 325 -999
2012-03-26 06:33:46 51°13.636 2°56.019 126.4 0.1 357 -999
2012-03-26 06:33:51 51°13.636 2°56.019 126.2 -999 2 -999
2012-03-26 06:33:56 51°13.636 2°56.019 125.9 -999 23 -999
2012-03-26 06:34:01 51°13.636 2°56.019 125.8 0.1 21 -999
2012-03-26 06:34:06 51°13.636 2°56.019 125.7 0.1 22 -999
2012-03-26 06:34:11 51°13.636 2°56.019 125.7 0.1 40 -999
2012-03-26 06:34:16 51°13.636 2°56.019 125.9 0.1 154 -999
2012-03-26 06:34:21 51°13.636 2°56.019 126.3 0.1 199 -999
2012-03-26 06:34:26 51°13.636 2°56.019 127 -999 314 -999
2012-03-26 06:34:31 51°13.636 2°56.019 127.5 0.1 11 -999
2012-03-26 06:34:36 51°13.635 2°56.019 127.6 -999 176 -999
2012-03-26 06:34:41 51°13.635 2°56.019 127.6 -999 191 -999
2012-03-26 06:34:46 51°13.635 2°56.019 127.7 -999 317 -999
2012-03-26 06:34:51 51°13.635 2°56.019 127.5 -999 33 -999
2012-03-26 06:34:55 51°13.635 2°56.019 127.5 -999 343 -999
2012-03-26 06:35:01 51°13.636 2°56.019 127.5 -999 4 -999
2012-03-26 06:35:06 51°13.635 2°56.019 127.5 0.1 223 -999
2012-03-26 06:35:11 51°13.635 2°56.019 127.5 0.1 202 -999
2012-03-26 06:35:15 51°13.635 2°56.019 127.5 -999 226 -999
2012-03-26 06:35:21 51°13.636 2°56.019 127.5 0.1 252 -999
2012-03-26 06:35:26 51°13.635 2°56.019 127.5 -999 271 -999
2012-03-26 06:35:31 51°13.636 2°56.019 127.5 -999 253 -999
2012-03-26 06:35:35 51°13.636 2°56.019 127.5 -999 230 -999
2012-03-26 06:35:41 51°13.635 2°56.019 127.5 0.1 206 -999
2012-03-26 06:35:46 51°13.635 2°56.019 127.5 -999 235 -999
2012-03-26 06:35:51 51°13.636 2°56.019 127.5 0.1 12 -999
2012-03-26 06:35:56 51°13.635 2°56.019 127.5 -999 282 -999
2012-03-26 06:36:01 51°13.635 2°56.019 127.5 -999 229 -999
2012-03-26 06:36:06 51°13.636 2°56.019 127.5 0.1 357 -999
2012-03-26 06:36:11 51°13.635 2°56.019 127.5 -999 202 -999
2012-03-26 06:36:16 51°13.635 2°56.019 127.5 0.1 206 -999
2012-03-26 06:36:21 51°13.635 2°56.019 127.5 -999 19 -999
2012-03-26 06:36:26 51°13.635 2°56.019 127.5 0.1 6 -999
2012-03-26 06:36:31 51°13.635 2°56.019 127.5 -999 19 -999
2012-03-26 06:36:36 51°13.635 2°56.02 127.5 -999 69 -999
2012-03-26 06:36:41 51°13.635 2°56.02 127.5 -999 274 -999
2012-03-26 06:36:46 51°13.635 2°56.019 127.5 0.1 240 -999
2012-03-26 06:36:51 51°13.635 2°56.02 127.5 -999 222 -999
2012-03-26 06:36:55 51°13.635 2°56.02 127.5 -999 238 -999
2012-03-26 06:37:01 51°13.635 2°56.02 127.5 0.1 26 -999
2012-03-26 06:37:06 51°13.635 2°56.02 127.5 -999 16 -999
2012-03-26 06:37:11 51°13.634 2°56.021 127.5 -999 307 -999
2012-03-26 06:37:15 51°13.634 2°56.021 127.6 0.1 31 -999
2012-03-26 06:37:21 51°13.634 2°56.021 127.6 -999 215 -999
2012-03-26 06:37:26 51°13.633 2°56.021 127.5 0.1 202 -999
2012-03-26 06:37:31 51°13.633 2°56.021 127.5 0.1 192 -999
2012-03-26 06:37:35 51°13.633 2°56.021 127.4 0.1 210 -999
2012-03-26 06:37:41 51°13.634 2°56.021 127.3 -999 105 -999
2012-03-26 06:37:46 51°13.634 2°56.021 127.2 -999 1 -999
2012-03-26 06:37:51 51°13.634 2°56.021 127.2 0.1 9 -999
2012-03-26 06:37:56 51°13.634 2°56.02 127.2 -999 253 -999
2012-03-26 06:38:01 51°13.634 2°56.02 127.2 -999 204 -999
2012-03-26 06:38:06 51°13.634 2°56.02 127.3 -999 51 -999
2012-03-26 06:38:11 51°13.635 2°56.02 127.4 0.1 46 -999
2012-03-26 06:38:16 51°13.635 2°56.02 127.5 0.1 1 -999
2012-03-26 06:38:21 51°13.635 2°56.02 127.6 0.1 12 -999
2012-03-26 06:38:26 51°13.635 2°56.019 127.8 -999 346 -999
2012-03-26 06:38:31 51°13.635 2°56.02 127.8 0.1 26 -999
2012-03-26 06:38:36 51°13.635 2°56.02 127.4 0.1 41 -999
2012-03-26 06:38:41 51°13.635 2°56.02 127.1 -999 202 -999
2012-03-26 06:38:46 51°13.635 2°56.019 126.4 -999 196 -999
2012-03-26 06:38:51 51°13.635 2°56.02 125.7 0.1 42 -999
2012-03-26 06:38:56 51°13.635 2°56.02 125 0.1 45 -999
2012-03-26 06:39:01 51°13.635 2°56.02 124.5 0.1 70 -999
2012-03-26 06:39:06 51°13.635 2°56.02 124.1 0.1 142 -999
2012-03-26 06:39:11 51°13.634 2°56.019 123.6 0.1 202 -999
2012-03-26 06:39:15 51°13.634 2°56.02 123 -999 211 -999
2012-03-26 06:39:21 51°13.634 2°56.019 122.5 0.1 209 -999
2012-03-26 06:39:26 51°13.634 2°56.02 121.8 0.1 207 -999
2012-03-26 06:39:31 51°13.634 2°56.02 120.8 0.1 210 -999
2012-03-26 06:39:35 51°13.634 2°56.019 119.9 0.1 203 -999
2012-03-26 06:39:41 51°13.634 2°56.019 119.2 0.1 187 -999
2012-03-26 06:39:46 51°13.634 2°56.019 118.5 0.1 188 7.6
2012-03-26 06:39:51 51°13.634 2°56.019 117.8 0.1 200 7.6
2012-03-26 06:39:55 51°13.634 2°56.019 116.9 0.2 208 7.6
2012-03-26 06:40:00 51°13.634 2°56.019 115.8 0.1 205 -999
2012-03-26 06:40:06 51°13.634 2°56.019 114.6 -999 198 7.6
2012-03-26 06:40:11 51°13.633 2°56.019 113.5 0.1 215 -999
2012-03-26 06:40:16 51°13.633 2°56.019 112.1 0.1 207 -999
2012-03-26 06:40:21 51°13.633 2°56.019 111.1 0.1 211 -999
2012-03-26 06:40:26 51°13.633 2°56.019 109.9 0.2 202 -999
2012-03-26 06:40:31 51°13.633 2°56.019 108.9 0.2 196 -999
2012-03-26 06:40:36 51°13.633 2°56.019 107.8 0.1 205 -999
2012-03-26 06:40:41 51°13.633 2°56.019 106.8 0.1 336 -999
2012-03-26 06:40:46 51°13.633 2°56.018 105.8 0.2 274 -999
2012-03-26 06:40:51 51°13.633 2°56.016 105 0.7 284 -999
2012-03-26 06:40:55 51°13.633 2°56.014 104.6 1.2 275 7.9
2012-03-26 06:41:01 51°13.634 2°56.01 104.4 1.6 282 -999
2012-03-26 06:41:06 51°13.635 2°56.006 104.4 2.1 281 7.7
2012-03-26 06:41:11 51°13.635 2°56.001 104.8 2.4 284 -999
2012-03-26 06:41:15 51°13.636 2°55.996 106.1 2.7 286 -999
2012-03-26 06:41:21 51°13.638 2°55.988 107.3 3 286 -999
2012-03-26 06:41:26 51°13.64 2°55.981 108.8 3.4 288 -999
2012-03-26 06:41:31 51°13.641 2°55.973 110.1 3.6 290 -999
2012-03-26 06:41:35 51°13.643 2°55.967 111.2 3.9 292 -999
2012-03-26 06:41:41 51°13.645 2°55.957 112.1 4.1 292 -999
2012-03-26 06:41:46 51°13.647 2°55.948 112.8 4.2 292 -999
2012-03-26 06:41:51 51°13.65 2°55.94 113.4 4.3 292 -999
2012-03-26 06:41:55 51°13.651 2°55.932 114.2 4.5 292 -999
2012-03-26 06:42:01 51°13.654 2°55.921 115.1 4.6 294 -999
2012-03-26 06:42:06 51°13.657 2°55.912 116.2 4.7 294 -999
2012-03-26 06:42:11 51°13.66 2°55.902 117.4 4.8 296 -999
2012-03-26 06:42:16 51°13.663 2°55.893 118.5 4.9 297 -999
2012-03-26 06:42:21 51°13.666 2°55.883 119.7 4.9 297 -999
2012-03-26 06:42:26 51°13.67 2°55.874 120.9 5 299 -999
2012-03-26 06:42:31 51°13.673 2°55.864 122.7 5.1 300 -999
2012-03-26 06:42:36 51°13.677 2°55.854 124.2 5.1 300 -999
2012-03-26 06:42:41 51°13.681 2°55.844 125.7 5.2 303 -999
2012-03-26 06:42:46 51°13.685 2°55.835 127.4 5.2 304 -999
2012-03-26 06:42:51 51°13.689 2°55.826 129 5.3 306 -999
2012-03-26 06:42:56 51°13.694 2°55.816 130.6 5.3 308 -999
2012-03-26 06:43:01 51°13.699 2°55.807 132.2 5.4 311 -999
2012-03-26 06:43:06 51°13.704 2°55.798 133.6 5.4 311 -999
2012-03-26 06:43:11 51°13.709 2°55.79 134.6 5.4 313 -999
2012-03-26 06:43:16 51°13.714 2°55.781 135.3 5.4 315 -999
2012-03-26 06:43:21 51°13.719 2°55.773 135.8 5.3 314 -999
2012-03-26 06:43:26 51°13.725 2°55.764 136.1 5.3 315 -999
2012-03-26 06:43:31 51°13.73 2°55.756 136.2 5.4 317 -999
2012-03-26 06:43:35 51°13.734 2°55.749 136.5 5.4 315 -999
2012-03-26 06:43:41 51°13.741 2°55.739 136.9 5.4 316 -999
2012-03-26 06:43:46 51°13.746 2°55.731 137.1 5.4 317 -999
2012-03-26 06:43:51 51°13.752 2°55.723 137.5 5.4 317 -999
2012-03-26 06:43:55 51°13.756 2°55.716 138 5.4 317 -999
2012-03-26 06:44:01 51°13.762 2°55.707 138.5 5.3 317 -999
2012-03-26 06:44:06 51°13.767 2°55.699 139.4 5.2 316 -999
2012-03-26 06:44:11 51°13.773 2°55.691 140.5 5.1 319 -999
2012-03-26 06:44:16 51°13.778 2°55.684 142.1 5.1 321 -999
2012-03-26 06:44:21 51°13.784 2°55.677 143.6 5.1 322 -999
2012-03-26 06:44:26 51°13.789 2°55.67 145.2 5 322 -999
2012-03-26 06:44:31 51°13.795 2°55.664 147.2 5 325 -999
2012-03-26 06:44:35 51°13.8 2°55.659 149.4 5.1 328 -999
2012-03-26 06:44:41 51°13.807 2°55.653 151.8 5.1 330 -999
2012-03-26 06:44:46 51°13.813 2°55.647 154.3 5.1 333 -999
2012-03-26 06:44:51 51°13.82 2°55.643 156.8 5.2 336 -999
2012-03-26 06:44:56 51°13.827 2°55.638 159 5.2 338 -999
2012-03-26 06:45:01 51°13.833 2°55.634 161.2 5.2 340 -999
2012-03-26 06:45:06 51°13.84 2°55.631 163.4 5.1 340 -999
2012-03-26 06:45:11 51°13.847 2°55.627 165.4 5.2 343 -999
2012-03-26 06:45:16 51°13.854 2°55.624 167.1 5.3 345 -999
2012-03-26 06:45:21 51°13.861 2°55.621 168.7 5.2 345 -999
2012-03-26 06:45:26 51°13.868 2°55.619 170.4 5.1 347 -999
2012-03-26 06:45:31 51°13.875 2°55.617 172.2 5 350 -999
2012-03-26 06:45:36 51°13.881 2°55.615 174.5 4.8 352 -999
2012-03-26 06:45:41 51°13.888 2°55.614 177.2 4.7 354 -999
2012-03-26 06:45:46 51°13.894 2°55.613 180 4.6 357 -999
2012-03-26 06:45:51 51°13.9 2°55.613 183 4.4 359 -999
2012-03-26 06:45:55 51°13.905 2°55.613 186 4.2 1 -999
2012-03-26 06:46:01 51°13.911 2°55.614 189.1 4 4 -999
2012-03-26 06:46:06 51°13.916 2°55.615 192.1 3.9 7 -999
2012-03-26 06:46:11 51°13.922 2°55.617 195.1 3.8 10 -999
2012-03-26 06:46:15 51°13.926 2°55.618 198.1 3.7 12 -999
2012-03-26 06:46:21 51°13.931 2°55.621 201 3.6 15 -999
2012-03-26 06:46:26 51°13.936 2°55.623 204 3.5 17 -999
2012-03-26 06:46:31 51°13.941 2°55.626 206.9 3.4 21 -999
2012-03-26 06:46:35 51°13.944 2°55.628 209.8 3.1 22 -999
2012-03-26 06:46:41 51°13.948 2°55.631 212.5 3 25 -999
2012-03-26 06:46:46 51°13.952 2°55.634 214.8 2.9 27 -999
2012-03-26 06:46:51 51°13.955 2°55.637 216.8 2.7 28 -999
2012-03-26 06:46:55 51°13.958 2°55.639 218.7 2.5 30 -999
2012-03-26 06:47:01 51°13.961 2°55.643 220.9 2.2 31 -999
2012-03-26 06:47:06 51°13.963 2°55.645 223.2 1.9 32 -999
2012-03-26 06:47:11 51°13.965 2°55.646 225.8 1.5 26 -999
2012-03-26 06:47:15 51°13.966 2°55.647 228.6 1 28 -999
2012-03-26 06:47:21 51°13.967 2°55.648 232.1 0.7 16 -999
2012-03-26 06:47:26 51°13.968 2°55.648 236 0.5 2 -999
2012-03-26 06:47:31 51°13.968 2°55.647 240.3 0.4 333 -999
2012-03-26 06:47:35 51°13.969 2°55.647 243.8 0.5 298 -999
2012-03-26 06:47:41 51°13.969 2°55.645 248.3 0.7 284 -999
2012-03-26 06:47:46 51°13.969 2°55.643 253.2 0.9 283 -999
2012-03-26 06:47:51 51°13.97 2°55.64 257.4 1.2 283 -999
2012-03-26 06:47:55 51°13.97 2°55.638 263.8 1.4 284 10
2012-03-26 06:48:01 51°13.97 2°55.633 269.3 1.7 282 -999
2012-03-26 06:48:06 51°13.971 2°55.629 272.5 1.9 286 -999
2012-03-26 06:48:11 51°13.972 2°55.625 279 2.1 291 -999
2012-03-26 06:48:15 51°13.973 2°55.621 284.5 2.3 294 10
2012-03-26 06:48:21 51°13.975 2°55.615 290.2 2.7 298 10
2012-03-26 06:48:26 51°13.978 2°55.609 294.7 3 303 10
2012-03-26 06:48:30 51°13.98 2°55.604 299.4 3.6 306 10
2012-03-26 06:48:35 51°13.983 2°55.597 303 4 310 10
2012-03-26 06:48:40 51°13.988 2°55.59 308.9 4.5 313 10
2012-03-26 06:48:45 51°13.992 2°55.582 313 5 315 -999
2012-03-26 06:48:51 51°13.999 2°55.572 315.9 5.5 317 -999
2012-03-26 06:48:55 51°14.004 2°55.565 318.2 5.9 318 10
2012-03-26 06:49:00 51°14.011 2°55.556 320.2 6.4 321 10.1
2012-03-26 06:49:05 51°14.018 2°55.547 321.7 6.7 322 10.1
2012-03-26 06:49:10 51°14.026 2°55.538 323.7 7.1 323 10
2012-03-26 06:49:15 51°14.034 2°55.528 324.3 7.3 323 10.1
2012-03-26 06:49:20 51°14.043 2°55.518 324.8 7.7 324 10.1
2012-03-26 06:49:25 51°14.052 2°55.508 325.7 7.9 325 10
2012-03-26 06:49:30 51°14.061 2°55.498 326.9 8.1 326 10.1
2012-03-26 06:49:35 51°14.071 2°55.488 328.4 8.4 328 10.1
2012-03-26 06:49:40 51°14.081 2°55.478 329 8.7 328 -999
2012-03-26 06:49:46 51°14.094 2°55.466 329.9 8.9 330 -999
2012-03-26 06:49:51 51°14.104 2°55.455 330.5 9 327 10.1
2012-03-26 06:49:55 51°14.112 2°55.446 330.3 9.2 328 10
2012-03-26 06:50:00 51°14.124 2°55.435 330.3 9.4 327 10
2012-03-26 06:50:06 51°14.138 2°55.422 329.7 9.6 328 10
2012-03-26 06:50:11 51°14.149 2°55.41 329.6 9.7 328 9.9
2012-03-26 06:50:16 51°14.161 2°55.399 329.9 9.9 327 -999
2012-03-26 06:50:21 51°14.173 2°55.387 329.2 10 327 -999
2012-03-26 06:50:26 51°14.185 2°55.375 329.5 10.1 328 9.9
2012-03-26 06:50:31 51°14.196 2°55.362 329.5 10.1 326 -999
2012-03-26 06:50:35 51°14.206 2°55.353 328.8 10.2 326 -999
2012-03-26 06:50:40 51°14.217 2°55.34 328.3 10.2 326 9.9
2012-03-26 06:50:45 51°14.229 2°55.327 328.6 10.2 327 9.9
2012-03-26 06:50:51 51°14.244 2°55.313 329.5 10.3 327 9.9
2012-03-26 06:50:55 51°14.253 2°55.302 328.9 10.3 326 -999
2012-03-26 06:51:01 51°14.268 2°55.288 328.7 10.4 328 -999
2012-03-26 06:51:06 51°14.28 2°55.276 330 10.4 329 9.8
2012-03-26 06:51:11 51°14.292 2°55.263 330.1 10.4 328 -999
2012-03-26 06:51:15 51°14.302 2°55.253 329.6 10.4 327 -999
2012-03-26 06:51:21 51°14.316 2°55.239 330.4 10.4 329 -999
2012-03-26 06:51:26 51°14.329 2°55.227 331.1 10.5 329 -999
2012-03-26 06:51:31 51°14.341 2°55.214 331.1 10.6 328 -999
2012-03-26 06:51:35 51°14.352 2°55.204 331.1 10.7 328 -999
2012-03-26 06:51:41 51°14.367 2°55.189 331 10.8 328 9.4
2012-03-26 06:51:46 51°14.38 2°55.177 331.2 10.8 330 -999
2012-03-26 06:51:51 51°14.393 2°55.165 332 11 329 9.9
2012-03-26 06:51:55 51°14.404 2°55.155 332 11.1 329 9.9
2012-03-26 06:52:01 51°14.42 2°55.14 331.7 11.3 330 -999
2012-03-26 06:52:06 51°14.434 2°55.128 332.2 11.4 332 -999
2012-03-26 06:52:11 51°14.448 2°55.116 333.4 11.5 331 9.8
2012-03-26 06:52:15 51°14.458 2°55.105 333.6 11.5 331 -999
2012-03-26 06:52:20 51°14.472 2°55.093 333.2 11.6 330 10
2012-03-26 06:52:26 51°14.489 2°55.077 332.7 11.8 330 10.3
2012-03-26 06:52:31 51°14.503 2°55.064 332.2 11.8 329 10.3
2012-03-26 06:52:35 51°14.514 2°55.052 331.9 12 328 10.3
2012-03-26 06:52:40 51°14.529 2°55.038 331.3 12.2 327 10.4
2012-03-26 06:52:45 51°14.542 2°55.022 330.3 12.3 325 10.7
2012-03-26 06:52:50 51°14.556 2°55.005 329.2 12.5 322 11.2
2012-03-26 06:52:55 51°14.57 2°54.987 328.6 12.7 319 11.4
2012-03-26 06:52:59 51°14.58 2°54.972 327.2 12.8 318 11.5
2012-03-26 06:53:04 51°14.594 2°54.953 326.5 12.9 319 11.5
2012-03-26 06:53:09 51°14.607 2°54.934 326.7 12.9 318 11.3
2012-03-26 06:53:14 51°14.62 2°54.915 326.9 12.9 319 11.2
2012-03-26 06:53:19 51°14.634 2°54.896 327.2 13 317 11.2
2012-03-26 06:53:23 51°14.644 2°54.88 325.9 13 317 11
2012-03-26 06:53:28 51°14.658 2°54.861 325.2 13 319 11
2012-03-26 06:53:33 51°14.671 2°54.842 325.6 12.9 318 11
2012-03-26 06:53:38 51°14.684 2°54.822 325.3 12.9 316 10.9
2012-03-26 06:53:43 51°14.697 2°54.803 324.6 12.9 317 10.8
2012-03-26 06:53:48 51°14.71 2°54.783 324.3 13 316 10.8
2012-03-26 06:53:53 51°14.723 2°54.763 323.7 12.9 316 10.8
2012-03-26 06:53:58 51°14.735 2°54.743 323.4 12.9 316 10.9
2012-03-26 06:54:03 51°14.748 2°54.723 323.2 12.9 316 10.9
2012-03-26 06:54:07 51°14.759 2°54.708 323.3 12.9 317 10.8
2012-03-26 06:54:12 51°14.772 2°54.688 323.6 12.9 317 11
2012-03-26 06:54:17 51°14.785 2°54.67 325.4 12.8 320 11.1
2012-03-26 06:54:22 51°14.799 2°54.651 326 12.9 318 11
2012-03-26 06:54:27 51°14.812 2°54.632 325.3 12.8 319 11.2
2012-03-26 06:54:32 51°14.826 2°54.614 326 12.8 321 11.1
2012-03-26 06:54:37 51°14.84 2°54.597 327.8 12.7 323 11.2
2012-03-26 06:54:42 51°14.854 2°54.581 330.4 12.7 326 11.1
2012-03-26 06:54:47 51°14.869 2°54.565 331.9 12.7 325 11.1
2012-03-26 06:54:52 51°14.883 2°54.549 332.2 12.7 325 11.2
2012-03-26 06:54:57 51°14.898 2°54.534 332.6 12.7 326 11.2
2012-03-26 06:55:03 51°14.915 2°54.514 332.5 12.6 324 11
2012-03-26 06:55:07 51°14.926 2°54.501 331.1 12.7 324 10.9
2012-03-26 06:55:12 51°14.941 2°54.485 330.6 12.7 325 11.1
2012-03-26 06:55:17 51°14.955 2°54.468 330.5 12.7 324 10.8
2012-03-26 06:55:23 51°14.971 2°54.448 329.7 12.6 322 10.6
2012-03-26 06:55:27 51°14.982 2°54.434 329.1 12.6 324 10.5
2012-03-26 06:55:32 51°14.996 2°54.418 329.6 12.6 324 10.5
2012-03-26 06:55:37 51°15.011 2°54.402 330.3 12.6 325 10.4
2012-03-26 06:55:42 51°15.025 2°54.386 330.3 12.6 324 10.3
2012-03-26 06:55:47 51°15.038 2°54.368 329.4 12.6 323 10.5
2012-03-26 06:55:52 51°15.052 2°54.351 328.8 12.6 322 10.5
2012-03-26 06:55:57 51°15.066 2°54.334 328.5 12.6 323 10.5
2012-03-26 06:56:02 51°15.08 2°54.317 328.8 12.6 323 10.4
2012-03-26 06:56:07 51°15.094 2°54.301 329 12.6 323 10.5
2012-03-26 06:56:12 51°15.108 2°54.284 329.8 12.6 324 10.6
2012-03-26 06:56:17 51°15.122 2°54.269 330.6 12.6 325 10.6
2012-03-26 06:56:22 51°15.137 2°54.253 331.7 12.6 326 10.6
2012-03-26 06:56:27 51°15.152 2°54.238 333.2 12.6 327 10.7
2012-03-26 06:56:32 51°15.166 2°54.222 333.4 12.6 325 10.7
2012-03-26 06:56:37 51°15.18 2°54.205 331.9 12.7 324 10.7
2012-03-26 06:56:42 51°15.194 2°54.189 331.2 12.7 325 10.7
2012-03-26 06:56:47 51°15.209 2°54.173 332.3 12.6 326 10.7
2012-03-26 06:56:52 51°15.223 2°54.157 333.2 12.6 325 10.8
2012-03-26 06:56:57 51°15.237 2°54.141 332.6 12.6 325 10.7
2012-03-26 06:57:02 51°15.251 2°54.125 331.8 12.6 324 10.8
2012-03-26 06:57:07 51°15.266 2°54.108 331.4 12.7 324 10.9
2012-03-26 06:57:12 51°15.28 2°54.092 331.4 12.7 324 10.9
2012-03-26 06:57:17 51°15.294 2°54.075 331.4 12.7 325 10.9
2012-03-26 06:57:22 51°15.309 2°54.06 332.2 12.7 326 10.9
2012-03-26 06:57:27 51°15.323 2°54.043 332.4 12.7 325 11
2012-03-26 06:57:32 51°15.337 2°54.026 332.1 12.7 324 11
2012-03-26 06:57:37 51°15.351 2°54.01 331.7 12.6 324 11
2012-03-26 06:57:42 51°15.365 2°53.994 331.5 12.6 325 11
2012-03-26 06:57:47 51°15.38 2°53.978 332.6 12.6 326 11
2012-03-26 06:57:52 51°15.395 2°53.963 333.6 12.6 326 11.1
2012-03-26 06:57:57 51°15.41 2°53.948 334 12.7 327 11
2012-03-26 06:58:03 51°15.427 2°53.929 334.3 12.6 327 11
2012-03-26 06:58:07 51°15.439 2°53.917 334.6 12.6 327 11
2012-03-26 06:58:12 51°15.454 2°53.902 334.7 12.6 327 11.2
2012-03-26 06:58:17 51°15.468 2°53.887 334.6 12.7 327 11.2
2012-03-26 06:58:22 51°15.483 2°53.871 334.2 12.7 326 11.1
2012-03-26 06:58:27 51°15.497 2°53.856 333.8 12.6 326 11.2
2012-03-26 06:58:32 51°15.512 2°53.84 333 12.6 325 11.1
2012-03-26 06:58:37 51°15.526 2°53.823 331.9 12.6 324 11.2
2012-03-26 06:58:42 51°15.541 2°53.807 331.1 12.8 325 11.2
2012-03-26 06:58:47 51°15.555 2°53.791 331.7 12.7 326 11.1
2012-03-26 06:58:52 51°15.57 2°53.775 333.1 12.7 326 11.1
2012-03-26 06:58:57 51°15.585 2°53.76 333.6 12.7 326 11.2
2012-03-26 06:59:02 51°15.599 2°53.744 332.9 12.8 325 11.2
2012-03-26 06:59:07 51°15.614 2°53.728 332.2 12.8 326 11.3
2012-03-26 06:59:12 51°15.628 2°53.711 332.5 12.7 325 11.3
2012-03-26 06:59:17 51°15.643 2°53.696 333.2 12.8 326 11.3
2012-03-26 06:59:23 51°15.66 2°53.677 334 12.7 326 11.4
2012-03-26 06:59:27 51°15.672 2°53.665 334.4 12.8 326 11.4
2012-03-26 06:59:32 51°15.687 2°53.649 333.6 12.8 326 11.5
2012-03-26 06:59:37 51°15.701 2°53.632 332.3 12.8 325 11.4
2012-03-26 06:59:42 51°15.716 2°53.616 332.2 12.8 325 11.4
2012-03-26 06:59:47 51°15.73 2°53.599 331.6 12.8 324 11.5
2012-03-26 06:59:52 51°15.744 2°53.582 330.7 12.8 324 11.5
2012-03-26 06:59:57 51°15.759 2°53.565 329.7 12.8 323 11.6
2012-03-26 07:00:02 51°15.773 2°53.548 329.9 12.9 325 11.7
2012-03-26 07:00:07 51°15.787 2°53.532 330.8 12.8 325 11.6
2012-03-26 07:00:12 51°15.802 2°53.516 331.8 12.8 326 11.7
2012-03-26 07:00:17 51°15.817 2°53.501 333 12.8 327 11.6
2012-03-26 07:00:22 51°15.832 2°53.487 334.6 12.7 329 11.6
2012-03-26 07:00:27 51°15.847 2°53.472 335.4 12.8 329 11.7
2012-03-26 07:00:32 51°15.863 2°53.457 336.2 12.7 330 11.8
2012-03-26 07:00:37 51°15.878 2°53.444 336.8 12.8 330 11.9
2012-03-26 07:00:42 51°15.894 2°53.43 337.2 12.8 331 11.8
2012-03-26 07:00:47 51°15.909 2°53.417 337.4 12.8 331 11.8
2012-03-26 07:00:52 51°15.925 2°53.403 337.5 12.7 331 11.5
2012-03-26 07:00:57 51°15.94 2°53.389 337.5 12.7 331 11.4
2012-03-26 07:01:02 51°15.955 2°53.375 337.5 12.6 330 11.8
2012-03-26 07:01:07 51°15.97 2°53.361 337.5 12.6 330 11.7
2012-03-26 07:01:12 51°15.986 2°53.347 337.2 12.8 330 11.4
2012-03-26 07:01:17 51°16.001 2°53.334 337.1 12.8 331 11.6
2012-03-26 07:01:22 51°16.017 2°53.319 336.9 12.8 330 11.5
2012-03-26 07:01:27 51°16.032 2°53.305 336.6 12.8 330 11.5
2012-03-26 07:01:32 51°16.047 2°53.291 336.5 12.8 330 11.4
2012-03-26 07:01:37 51°16.062 2°53.277 336.5 12.8 330 11.6
2012-03-26 07:01:42 51°16.077 2°53.262 336.4 12.7 329 11.6
2012-03-26 07:01:47 51°16.093 2°53.248 336.5 12.8 330 11.5
2012-03-26 07:01:52 51°16.108 2°53.234 336.5 12.8 330 11.5
2012-03-26 07:01:57 51°16.123 2°53.219 336.3 12.8 329 11.6
2012-03-26 07:02:03 51°16.142 2°53.201 335.8 12.8 329 11.6
2012-03-26 07:02:07 51°16.153 2°53.189 335.4 12.8 328 11.5
2012-03-26 07:02:12 51°16.169 2°53.175 335.4 12.8 329 11.7
2012-03-26 07:02:17 51°16.184 2°53.16 335.2 12.9 329 11.8
2012-03-26 07:02:22 51°16.199 2°53.145 334.8 12.9 328 11.5
2012-03-26 07:02:27 51°16.214 2°53.129 334.4 12.9 327 11.8
2012-03-26 07:02:32 51°16.229 2°53.114 333.9 12.9 327 11.7
2012-03-26 07:02:37 51°16.244 2°53.098 333.3 12.8 326 11.8
2012-03-26 07:02:42 51°16.258 2°53.082 332.8 12.8 325 11.8
2012-03-26 07:02:47 51°16.273 2°53.066 331.8 12.9 325 11.9
2012-03-26 07:02:52 51°16.288 2°53.049 331 13 325 11.8
2012-03-26 07:02:57 51°16.303 2°53.033 330.2 13 324 11.8
2012-03-26 07:03:02 51°16.317 2°53.017 331.1 12.9 326 11.8
2012-03-26 07:03:07 51°16.332 2°53.002 332.7 12.8 327 11.8
2012-03-26 07:03:12 51°16.347 2°52.986 333.3 12.9 327 11.9
2012-03-26 07:03:17 51°16.362 2°52.971 334.1 12.8 328 11.8
2012-03-26 07:03:22 51°16.377 2°52.956 334.7 12.8 329 11.9
2012-03-26 07:03:27 51°16.393 2°52.942 335.5 12.8 330 11.8
2012-03-26 07:03:32 51°16.408 2°52.928 336.5 12.8 331 11.7
2012-03-26 07:03:37 51°16.424 2°52.915 337.2 12.8 331 11.7
2012-03-26 07:03:42 51°16.439 2°52.901 337.5 12.7 331 11.7
2012-03-26 07:03:47 51°16.455 2°52.889 337.9 12.7 332 11.6
2012-03-26 07:03:52 51°16.471 2°52.876 338.5 12.7 333 11.6
2012-03-26 07:03:57 51°16.487 2°52.864 339.2 12.8 334 11.6
2012-03-26 07:04:02 51°16.503 2°52.851 340 12.7 334 11.5
2012-03-26 07:04:07 51°16.519 2°52.839 340.6 12.7 334 11.4
2012-03-26 07:04:12 51°16.535 2°52.827 341 12.7 335 11.3
2012-03-26 07:04:17 51°16.551 2°52.816 341.3 12.7 335 11.3
2012-03-26 07:04:22 51°16.567 2°52.803 341.1 12.7 334 11.2
2012-03-26 07:04:27 51°16.582 2°52.79 339.4 12.7 332 11.1
2012-03-26 07:04:32 51°16.597 2°52.776 337.1 12.7 330 11
2012-03-26 07:04:37 51°16.612 2°52.762 335.9 12.7 330 11
2012-03-26 07:04:42 51°16.628 2°52.747 335.6 12.7 330 10.9
2012-03-26 07:04:47 51°16.643 2°52.734 336.4 12.7 331 10.7
2012-03-26 07:04:52 51°16.659 2°52.72 336.7 12.7 331 10.7
2012-03-26 07:04:57 51°16.674 2°52.708 338.4 12.6 335 10.4
2012-03-26 07:05:02 51°16.69 2°52.697 339.9 12.6 334 10.3
2012-03-26 07:05:07 51°16.707 2°52.687 341.4 12.5 338 10.1
2012-03-26 07:05:12 51°16.723 2°52.677 344 12.4 340 9.7
2012-03-26 07:05:17 51°16.739 2°52.669 346.7 12.3 344 9.6
2012-03-26 07:05:22 51°16.756 2°52.662 349.8 12.3 345 9.4
2012-03-26 07:05:27 51°16.772 2°52.657 352.4 12.2 348 9.4
2012-03-26 07:05:32 51°16.789 2°52.652 354.3 12.2 349 9.4
2012-03-26 07:05:37 51°16.805 2°52.647 355 12.2 349 9.3
2012-03-26 07:05:42 51°16.822 2°52.642 355.5 12.2 350 9.2
2012-03-26 07:05:47 51°16.839 2°52.638 356.1 12.2 351 9.1
2012-03-26 07:05:52 51°16.856 2°52.635 357.9 12.2 353 9.1
2012-03-26 07:05:57 51°16.872 2°52.633 0.4 12.1 356 9
2012-03-26 07:06:02 51°16.889 2°52.632 1.5 12.2 357 9.3
2012-03-26 07:06:07 51°16.906 2°52.63 2.7 12.1 358 9.2
2012-03-26 07:06:12 51°16.923 2°52.629 3.4 12.1 358 9.3
2012-03-26 07:06:17 51°16.94 2°52.629 4.1 12.1 359 9.5
2012-03-26 07:06:22 51°16.956 2°52.628 4.9 12.1 358 9.5
2012-03-26 07:06:27 51°16.974 2°52.628 4.3 12.2 358 9.4
2012-03-26 07:06:32 51°16.991 2°52.627 4.4 12.2 359 9.4
2012-03-26 07:06:37 51°17.007 2°52.626 4.4 12.2 359 9.4
2012-03-26 07:06:42 51°17.024 2°52.626 4.7 12.2 359 9.3
2012-03-26 07:06:47 51°17.041 2°52.624 4 12.1 357 9.4
2012-03-26 07:06:52 51°17.057 2°52.623 3.8 12.1 358 9.1
2012-03-26 07:06:57 51°17.074 2°52.622 3.3 12.1 357 9.1
2012-03-26 07:07:03 51°17.094 2°52.62 3 12.1 358 9.1
2012-03-26 07:07:07 51°17.108 2°52.619 3 12.1 357 9
2012-03-26 07:07:12 51°17.124 2°52.617 2.7 12 357 9.1
2012-03-26 07:07:17 51°17.141 2°52.616 2.7 12.1 357 9
2012-03-26 07:07:22 51°17.158 2°52.615 3 12 358 9.1
2012-03-26 07:07:27 51°17.174 2°52.616 4.7 12 -999 9.2
2012-03-26 07:07:32 51°17.191 2°52.616 6 12 2 9.2
2012-03-26 07:07:37 51°17.208 2°52.617 7.5 12 3 9.3
2012-03-26 07:07:42 51°17.224 2°52.618 8.1 12 1 9.3
2012-03-26 07:07:47 51°17.241 2°52.619 7.6 12.1 1 9.3
2012-03-26 07:07:52 51°17.258 2°52.62 7.3 12.1 2 9.4
2012-03-26 07:07:57 51°17.274 2°52.62 7.6 12 2 9.5
2012-03-26 07:08:02 51°17.291 2°52.62 7.9 11.9 1 9.2
2012-03-26 07:08:07 51°17.307 2°52.62 7.3 12 -999 9.4
2012-03-26 07:08:12 51°17.324 2°52.62 5.9 12 358 9.5
2012-03-26 07:08:17 51°17.341 2°52.619 4.7 12 358 9.5
2012-03-26 07:08:22 51°17.357 2°52.618 3.9 12 357 9.4
2012-03-26 07:08:27 51°17.374 2°52.617 3.7 12 358 9.7
2012-03-26 07:08:32 51°17.391 2°52.615 3.7 12 357 9.6
2012-03-26 07:08:37 51°17.407 2°52.614 3.8 11.9 357 9.5
2012-03-26 07:08:42 51°17.424 2°52.613 3.8 11.9 357 9.6
2012-03-26 07:08:47 51°17.44 2°52.612 3.8 12 357 9.7
2012-03-26 07:08:52 51°17.457 2°52.611 3.8 12 357 9.7
2012-03-26 07:08:57 51°17.474 2°52.61 3.9 12 358 9.7
2012-03-26 07:09:02 51°17.49 2°52.609 4.1 11.9 358 10
2012-03-26 07:09:07 51°17.507 2°52.608 4.3 11.9 358 9.7
2012-03-26 07:09:12 51°17.523 2°52.607 4.8 11.9 359 9.7
2012-03-26 07:09:17 51°17.54 2°52.607 5 12 359 9.7
2012-03-26 07:09:23 51°17.559 2°52.606 5 11.9 359 9.7
2012-03-26 07:09:27 51°17.573 2°52.606 5.2 11.9 -999 9.7
2012-03-26 07:09:32 51°17.589 2°52.608 7.2 11.8 3 9.7
2012-03-26 07:09:37 51°17.606 2°52.611 9.7 11.8 5 9.9
2012-03-26 07:09:42 51°17.622 2°52.614 11.7 11.8 8 9.9
2012-03-26 07:09:47 51°17.638 2°52.617 13.8 11.7 8 9.8
2012-03-26 07:09:52 51°17.654 2°52.622 14.7 11.7 9 9.8
2012-03-26 07:09:57 51°17.67 2°52.626 15.6 11.7 10 9.8
2012-03-26 07:10:02 51°17.686 2°52.632 16.7 11.7 12 9.8
2012-03-26 07:10:07 51°17.701 2°52.638 18.1 11.7 13 9.8
2012-03-26 07:10:12 51°17.717 2°52.644 19.7 11.6 15 9.8
2012-03-26 07:10:17 51°17.732 2°52.651 21.1 11.6 15 9.8
2012-03-26 07:10:22 51°17.748 2°52.658 21.2 11.6 15 9.8
2012-03-26 07:10:27 51°17.763 2°52.664 21 11.6 14 9.7
2012-03-26 07:10:32 51°17.779 2°52.67 19.8 11.6 13 9.8
2012-03-26 07:10:37 51°17.795 2°52.676 19.7 11.6 13 9.8
2012-03-26 07:10:42 51°17.811 2°52.681 18.7 11.6 10 9.8
2012-03-26 07:10:47 51°17.826 2°52.686 17.5 11.6 11 9.8
2012-03-26 07:10:52 51°17.843 2°52.691 17.3 11.7 11 9.8
2012-03-26 07:10:57 51°17.859 2°52.695 16.6 11.7 10 9.7
2012-03-26 07:11:02 51°17.875 2°52.7 16.4 11.7 9 9.7
2012-03-26 07:11:07 51°17.891 2°52.704 15.6 11.7 9 9.9
2012-03-26 07:11:12 51°17.907 2°52.707 15.1 11.7 8 9.7
2012-03-26 07:11:17 51°17.923 2°52.711 14.6 11.7 8 9.9
2012-03-26 07:11:22 51°17.939 2°52.714 14.1 11.7 7 10
2012-03-26 07:11:27 51°17.955 2°52.717 13.2 11.8 6 10
2012-03-26 07:11:32 51°17.972 2°52.72 12.7 11.8 6 9.9
2012-03-26 07:11:37 51°17.988 2°52.722 11.9 11.8 5 10
2012-03-26 07:11:43 51°18.007 2°52.727 12.8 11.8 9 10.2
2012-03-26 07:11:47 51°18.021 2°52.73 13.9 11.8 8 10.1
2012-03-26 07:11:52 51°18.036 2°52.734 14.6 11.7 10 10
2012-03-26 07:11:57 51°18.052 2°52.74 16.8 11.7 12 10.1
2012-03-26 07:12:02 51°18.067 2°52.747 19.8 11.5 17 10.1
2012-03-26 07:12:07 51°18.083 2°52.756 23.4 11.4 20 10
2012-03-26 07:12:12 51°18.097 2°52.767 26.9 11.4 25 10.1
2012-03-26 07:12:17 51°18.111 2°52.778 30.4 11.4 28 10.2
2012-03-26 07:12:22 51°18.125 2°52.791 33.9 11.4 31 10
2012-03-26 07:12:27 51°18.138 2°52.806 37.1 11.2 35 10
2012-03-26 07:12:32 51°18.15 2°52.821 40.2 11.2 38 10.1
2012-03-26 07:12:37 51°18.162 2°52.837 42.9 11 40 10.2
2012-03-26 07:12:42 51°18.173 2°52.854 45.8 11.1 45 10.2
2012-03-26 07:12:47 51°18.183 2°52.872 48.7 11.1 47 10.3
2012-03-26 07:12:52 51°18.194 2°52.89 49.9 11.1 46 10.3
2012-03-26 07:12:57 51°18.204 2°52.91 52.5 11.1 52 10.3
2012-03-26 07:13:02 51°18.214 2°52.929 53.9 11.3 50 10.3
2012-03-26 07:13:07 51°18.224 2°52.949 54.2 11.3 51 10.3
2012-03-26 07:13:12 51°18.234 2°52.968 54.6 11.3 51 10.3
2012-03-26 07:13:17 51°18.243 2°52.987 54.1 11.3 50 10.4
2012-03-26 07:13:22 51°18.253 2°53.006 53.8 11.3 50 10.3
2012-03-26 07:13:27 51°18.263 2°53.025 53.8 11.3 50 10.3
2012-03-26 07:13:32 51°18.273 2°53.044 53.8 11.3 50 10.4
2012-03-26 07:13:37 51°18.283 2°53.063 53.6 11.3 50 10.5
2012-03-26 07:13:42 51°18.293 2°53.082 53.1 11.2 50 10.5
2012-03-26 07:13:47 51°18.303 2°53.101 53.1 11.2 50 10.4
2012-03-26 07:13:52 51°18.313 2°53.12 53.4 11.3 50 10.3
2012-03-26 07:13:57 51°18.324 2°53.139 53.2 11.3 49 10.4
2012-03-26 07:14:02 51°18.334 2°53.158 52.6 11.3 49 10.3
2012-03-26 07:14:07 51°18.344 2°53.178 52.8 11.3 50 10.3
2012-03-26 07:14:12 51°18.354 2°53.197 53.4 11.3 51 10.5
2012-03-26 07:14:17 51°18.363 2°53.216 53.9 11.2 51 10.4
2012-03-26 07:14:22 51°18.373 2°53.235 54.7 11.2 52 10.4
2012-03-26 07:14:27 51°18.382 2°53.255 55.5 11.2 53 10.3
2012-03-26 07:14:32 51°18.391 2°53.275 56.4 11.2 54 10.4
2012-03-26 07:14:37 51°18.4 2°53.295 56.7 11.2 55 10.5
2012-03-26 07:14:43 51°18.411 2°53.32 57.7 11.2 56 10.5
2012-03-26 07:14:47 51°18.418 2°53.337 58.5 11.3 56 10.5
2012-03-26 07:14:52 51°18.426 2°53.358 59.3 11.3 58 10.4
2012-03-26 07:14:57 51°18.435 2°53.379 59.9 11.3 57 10.6
2012-03-26 07:15:02 51°18.443 2°53.4 59.9 11.3 58 10.5
2012-03-26 07:15:07 51°18.451 2°53.421 60.3 11.3 58 10.6
2012-03-26 07:15:12 51°18.459 2°53.441 60.2 11.2 57 10.6
2012-03-26 07:15:17 51°18.469 2°53.462 58.7 11.2 55 10.6
2012-03-26 07:15:22 51°18.477 2°53.481 57.8 11.1 54 10.5
2012-03-26 07:15:27 51°18.487 2°53.502 56.7 11.3 53 10.4
2012-03-26 07:15:32 51°18.497 2°53.521 55.6 11.3 52 10.5
2012-03-26 07:15:37 51°18.506 2°53.54 54.8 11.2 51 10.5
2012-03-26 07:15:43 51°18.518 2°53.564 54.2 11.3 51 10.5
2012-03-26 07:15:47 51°18.526 2°53.579 53.8 11.4 51 10.5
2012-03-26 07:15:52 51°18.536 2°53.599 54.7 11.3 53 10.5
2012-03-26 07:15:57 51°18.545 2°53.619 56 11.4 54 10.5
2012-03-26 07:16:02 51°18.554 2°53.64 57.3 11.4 55 10.5
2012-03-26 07:16:07 51°18.563 2°53.661 58.6 11.3 57 10.4
2012-03-26 07:16:12 51°18.57 2°53.682 60.4 11.3 59 10.6
2012-03-26 07:16:17 51°18.578 2°53.703 61.1 11.2 59 10.7
2012-03-26 07:16:22 51°18.586 2°53.725 61.8 11.2 60 10.6
2012-03-26 07:16:27 51°18.594 2°53.747 62.3 11.3 60 10.5
2012-03-26 07:16:32 51°18.602 2°53.769 63.4 11.3 61 10.6
2012-03-26 07:16:37 51°18.61 2°53.79 63 11.3 60 10.6
2012-03-26 07:16:42 51°18.617 2°53.813 63.2 11.2 62 10.7
2012-03-26 07:16:47 51°18.624 2°53.834 63.2 11.2 60 10.7
2012-03-26 07:16:52 51°18.632 2°53.856 63.2 11.2 61 10.6
2012-03-26 07:16:57 51°18.64 2°53.878 63.1 11.3 60 10.7
2012-03-26 07:17:02 51°18.648 2°53.899 62.7 11.4 60 10.6
2012-03-26 07:17:07 51°18.656 2°53.921 62.5 11.3 59 10.5
2012-03-26 07:17:12 51°18.664 2°53.941 61.5 11.2 58 10.6
2012-03-26 07:17:17 51°18.673 2°53.962 59.6 11.2 55 10.5
2012-03-26 07:17:22 51°18.683 2°53.982 57.5 11.3 53 10.6
2012-03-26 07:17:27 51°18.692 2°54.002 56 11.3 52 10.6
2012-03-26 07:17:32 51°18.702 2°54.021 55.2 11.3 52 10.6
2012-03-26 07:17:37 51°18.711 2°54.041 56.1 11.2 55 10.7
2012-03-26 07:17:42 51°18.72 2°54.061 56.7 11.3 54 10.7
2012-03-26 07:17:47 51°18.729 2°54.082 57.5 11.3 56 10.6
2012-03-26 07:17:52 51°18.738 2°54.102 57.9 11.2 55 10.7
2012-03-26 07:17:57 51°18.746 2°54.123 58.7 11.3 57 10.7
2012-03-26 07:18:02 51°18.755 2°54.144 59.6 11.3 57 10.7
2012-03-26 07:18:07 51°18.763 2°54.165 60 11.3 59 10.7
2012-03-26 07:18:12 51°18.77 2°54.186 61.8 11.1 61 10.7
2012-03-26 07:18:17 51°18.778 2°54.209 63.9 11.2 63 10.6
2012-03-26 07:18:22 51°18.785 2°54.231 65 11.2 63 10.7
2012-03-26 07:18:27 51°18.792 2°54.253 65.8 11.2 64 10.6
2012-03-26 07:18:32 51°18.798 2°54.276 66.9 11.2 65 10.7
2012-03-26 07:18:37 51°18.804 2°54.298 67.4 11.2 66 10.7
2012-03-26 07:18:42 51°18.811 2°54.321 67.5 11.3 66 10.7
2012-03-26 07:18:47 51°18.817 2°54.344 68.1 11.1 66 10.6
2012-03-26 07:18:52 51°18.823 2°54.366 68.3 11.1 66 10.6
2012-03-26 07:18:57 51°18.829 2°54.389 68.3 11.2 66 10.7
2012-03-26 07:19:02 51°18.836 2°54.412 68.1 11.1 66 10.6
2012-03-26 07:19:07 51°18.842 2°54.434 67.7 11.1 66 10.7
2012-03-26 07:19:12 51°18.849 2°54.457 67.3 11.2 65 10.6
2012-03-26 07:19:17 51°18.855 2°54.479 66.8 11.2 65 10.6
2012-03-26 07:19:22 51°18.862 2°54.502 66.8 11.2 64 10.6
2012-03-26 07:19:27 51°18.869 2°54.524 65.5 11.2 62 10.7
2012-03-26 07:19:32 51°18.877 2°54.545 63.2 11.2 59 10.7
2012-03-26 07:19:37 51°18.885 2°54.566 61.7 11.2 58 10.7
2012-03-26 07:19:42 51°18.894 2°54.587 60.6 11.2 57 10.8
2012-03-26 07:19:47 51°18.903 2°54.607 59.5 11.2 56 10.6
2012-03-26 07:19:52 51°18.912 2°54.628 58.7 11.1 55 10.7
2012-03-26 07:19:57 51°18.921 2°54.648 58.5 11.3 55 10.7
2012-03-26 07:20:02 51°18.93 2°54.669 57.7 11.3 54 10.6
2012-03-26 07:20:07 51°18.939 2°54.69 57.8 11.3 56 10.7
2012-03-26 07:20:12 51°18.948 2°54.71 57.9 11.4 55 10.7
2012-03-26 07:20:17 51°18.956 2°54.731 59 11.2 58 10.7
2012-03-26 07:20:22 51°18.964 2°54.752 60.4 11.2 59 10.6
2012-03-26 07:20:27 51°18.971 2°54.774 62.2 11.2 61 10.6
2012-03-26 07:20:32 51°18.979 2°54.796 63.9 11.3 63 10.7
2012-03-26 07:20:37 51°18.986 2°54.818 65.1 11.2 63 10.6
2012-03-26 07:20:43 51°18.993 2°54.845 66.2 11.2 66 10.6
2012-03-26 07:20:47 51°18.999 2°54.863 66.8 11.2 64 10.6
2012-03-26 07:20:52 51°19.005 2°54.886 67.6 11.1 67 10.6
2012-03-26 07:20:57 51°19.011 2°54.909 68 11.2 66 10.6
2012-03-26 07:21:02 51°19.017 2°54.931 68 11.1 66 10.6
2012-03-26 07:21:07 51°19.024 2°54.954 68.4 11.2 66 10.6
2012-03-26 07:21:12 51°19.03 2°54.976 67.6 11.2 66 10.6
2012-03-26 07:21:17 51°19.037 2°54.999 67.6 11.2 65 10.7
2012-03-26 07:21:22 51°19.043 2°55.021 67 11.2 64 10.6
2012-03-26 07:21:27 51°19.05 2°55.043 66.5 11.1 64 10.6
2012-03-26 07:21:32 51°19.057 2°55.065 65.4 11.1 62 10.6
2012-03-26 07:21:37 51°19.065 2°55.086 63.2 11.2 59 10.7
2012-03-26 07:21:42 51°19.074 2°55.107 61.3 11.2 57 10.6
2012-03-26 07:21:47 51°19.081 2°55.128 61.1 11.2 59 10.6
2012-03-26 07:21:52 51°19.09 2°55.149 60.5 11.2 56 10.7
2012-03-26 07:21:57 51°19.099 2°55.169 59.4 11.2 56 10.6
2012-03-26 07:22:03 51°19.109 2°55.194 58.9 11.2 55 10.7
2012-03-26 07:22:07 51°19.116 2°55.21 58.3 11.2 55 10.6
2012-03-26 07:22:12 51°19.125 2°55.23 58.1 11.2 55 10.6
2012-03-26 07:22:17 51°19.134 2°55.25 57.8 11.2 55 10.6
2012-03-26 07:22:22 51°19.143 2°55.271 57.8 11.2 55 10.7
2012-03-26 07:22:27 51°19.152 2°55.291 58.2 11.2 55 10.8
2012-03-26 07:22:32 51°19.16 2°55.311 58.5 11.2 56 10.8
2012-03-26 07:22:37 51°19.169 2°55.332 59 11.2 57 10.6
2012-03-26 07:22:42 51°19.177 2°55.354 60.8 11.2 60 10.7
2012-03-26 07:22:47 51°19.184 2°55.376 62.7 11.1 62 10.7
2012-03-26 07:22:52 51°19.191 2°55.397 64.1 11.1 63 10.7
2012-03-26 07:22:57 51°19.198 2°55.42 65.4 11.1 64 10.7
2012-03-26 07:23:02 51°19.204 2°55.443 66.4 11.2 66 10.7
2012-03-26 07:23:07 51°19.211 2°55.465 67 11.2 65 10.7
2012-03-26 07:23:12 51°19.217 2°55.487 67.4 11.1 66 10.6
2012-03-26 07:23:17 51°19.223 2°55.51 67.8 11.1 66 10.7
2012-03-26 07:23:22 51°19.23 2°55.532 67.6 11.2 66 10.8
2012-03-26 07:23:27 51°19.236 2°55.555 67.7 11.1 66 10.7
2012-03-26 07:23:32 51°19.242 2°55.577 68 11.1 66 10.7
2012-03-26 07:23:37 51°19.249 2°55.6 67.9 11.1 66 10.7
2012-03-26 07:23:42 51°19.255 2°55.622 67.9 11.2 65 10.6
2012-03-26 07:23:47 51°19.262 2°55.644 67.2 11.1 64 10.6
2012-03-26 07:23:52 51°19.269 2°55.666 65.9 11.1 62 10.6
2012-03-26 07:23:57 51°19.277 2°55.688 64 11.2 59 10.7
2012-03-26 07:24:02 51°19.285 2°55.709 62.3 11.2 58 10.6
2012-03-26 07:24:07 51°19.293 2°55.73 61.1 11.2 58 10.6
2012-03-26 07:24:12 51°19.302 2°55.75 59.9 11.2 56 10.6
2012-03-26 07:24:17 51°19.311 2°55.771 59.5 11.2 57 10.6
2012-03-26 07:24:22 51°19.319 2°55.791 59.7 11.2 57 10.7
2012-03-26 07:24:27 51°19.327 2°55.813 60 11.2 58 10.5
2012-03-26 07:24:32 51°19.335 2°55.834 61.1 11.2 59 10.5
2012-03-26 07:24:37 51°19.343 2°55.855 62.4 11.2 61 10.6
2012-03-26 07:24:43 51°19.351 2°55.881 63.3 11.1 62 10.6
2012-03-26 07:24:47 51°19.357 2°55.899 65.1 11.1 63 10.5
2012-03-26 07:24:52 51°19.363 2°55.921 65.9 11.1 65 10.5
2012-03-26 07:24:57 51°19.37 2°55.944 66.6 11.2 64 10.6
2012-03-26 07:25:02 51°19.377 2°55.966 66.9 11.2 65 10.6
2012-03-26 07:25:07 51°19.383 2°55.989 67.4 11.2 65 10.6
2012-03-26 07:25:12 51°19.39 2°56.011 67.2 11.2 64 10.6
2012-03-26 07:25:17 51°19.396 2°56.033 66.8 11.2 65 10.5
2012-03-26 07:25:22 51°19.403 2°56.055 67 11.2 65 10.6
2012-03-26 07:25:27 51°19.41 2°56.077 67 11.2 64 10.6
2012-03-26 07:25:32 51°19.417 2°56.1 66.7 11.2 64 10.5
2012-03-26 07:25:37 51°19.424 2°56.122 66.6 11.2 64 10.5
2012-03-26 07:25:42 51°19.431 2°56.144 66.4 11.2 63 10.5
2012-03-26 07:25:47 51°19.438 2°56.166 65.3 11.2 62 10.5
2012-03-26 07:25:52 51°19.445 2°56.188 64.7 11.2 62 10.4
2012-03-26 07:25:57 51°19.453 2°56.209 63.9 11.1 60 10.5
2012-03-26 07:26:02 51°19.461 2°56.231 62.9 11.2 60 10.5
2012-03-26 07:26:07 51°19.469 2°56.252 62.5 11.3 59 10.5
2012-03-26 07:26:12 51°19.477 2°56.273 61.8 11.2 58 10.6
2012-03-26 07:26:17 51°19.486 2°56.294 60.9 11.3 58 10.6
2012-03-26 07:26:22 51°19.494 2°56.315 61 11.2 57 10.6
2012-03-26 07:26:27 51°19.503 2°56.336 60.3 11.2 57 10.5
2012-03-26 07:26:32 51°19.512 2°56.357 59.6 11.3 56 10.6
2012-03-26 07:26:37 51°19.52 2°56.378 58.9 11.3 57 10.6
2012-03-26 07:26:42 51°19.529 2°56.399 60 11.3 57 10.5
2012-03-26 07:26:47 51°19.537 2°56.42 60.3 11.3 57 10.5
2012-03-26 07:26:52 51°19.545 2°56.441 60.9 11.3 58 10.6
2012-03-26 07:26:57 51°19.553 2°56.462 61.2 11.2 59 10.5
2012-03-26 07:27:02 51°19.561 2°56.484 62.1 11.3 60 10.6
2012-03-26 07:27:07 51°19.569 2°56.505 62.6 11.3 60 10.5
2012-03-26 07:27:12 51°19.577 2°56.528 63.3 11.3 62 10.5
2012-03-26 07:27:17 51°19.584 2°56.55 64.6 11.3 63 10.6
2012-03-26 07:27:23 51°19.592 2°56.576 65.5 11.3 63 10.5
2012-03-26 07:27:27 51°19.598 2°56.594 66 11.3 64 10.4
2012-03-26 07:27:32 51°19.605 2°56.617 66.6 11.3 64 10.6
2012-03-26 07:27:37 51°19.611 2°56.639 66.8 11.3 64 10.5
2012-03-26 07:27:42 51°19.618 2°56.662 67.5 11.3 65 10.5
2012-03-26 07:27:47 51°19.625 2°56.684 66.8 11.2 63 10.5
2012-03-26 07:27:52 51°19.631 2°56.707 66.9 11.2 65 10.5
2012-03-26 07:27:57 51°19.638 2°56.729 66.9 11.1 63 10.5
2012-03-26 07:28:02 51°19.645 2°56.751 66.9 11.2 65 10.5
2012-03-26 07:28:07 51°19.652 2°56.774 67.1 11.3 64 10.6
2012-03-26 07:28:12 51°19.659 2°56.796 66.8 11.3 64 10.6
2012-03-26 07:28:17 51°19.666 2°56.818 66.5 11.3 63 10.5
2012-03-26 07:28:22 51°19.673 2°56.841 66.1 11.2 63 10.4
2012-03-26 07:28:27 51°19.68 2°56.862 65.5 11.2 62 10.5
2012-03-26 07:28:32 51°19.688 2°56.884 65.3 11.2 62 10.5
2012-03-26 07:28:37 51°19.695 2°56.907 64.6 11.3 62 10.5
2012-03-26 07:28:42 51°19.703 2°56.928 64.7 11.3 61 10.5
2012-03-26 07:28:47 51°19.71 2°56.95 64.4 11.2 61 10.4
2012-03-26 07:28:52 51°19.718 2°56.972 63.7 11.3 59 10.3
2012-03-26 07:28:57 51°19.727 2°56.992 61.6 11.3 56 10.4
2012-03-26 07:29:03 51°19.737 2°57.017 60 11.2 56 10.4
2012-03-26 07:29:07 51°19.744 2°57.033 58.9 11.2 54 10.4
2012-03-26 07:29:12 51°19.754 2°57.053 58.2 11.2 54 10.5
2012-03-26 07:29:17 51°19.763 2°57.073 57.9 11.3 54 10.5
2012-03-26 07:29:22 51°19.773 2°57.093 57.3 11.2 53 10.4
2012-03-26 07:29:27 51°19.782 2°57.112 56.8 11.2 52 10.4
2012-03-26 07:29:32 51°19.791 2°57.132 56.5 11.2 53 10.4
2012-03-26 07:29:37 51°19.801 2°57.152 56.7 11.2 53 10.4
2012-03-26 07:29:42 51°19.81 2°57.172 56.7 11.2 53 10.5
2012-03-26 07:29:47 51°19.82 2°57.192 57.1 11.3 54 10.5
2012-03-26 07:29:52 51°19.829 2°57.212 57.6 11.3 54 10.4
2012-03-26 07:29:57 51°19.838 2°57.233 58.1 11.2 55 10.4
2012-03-26 07:30:02 51°19.847 2°57.252 58.3 11.2 54 10.5
2012-03-26 07:30:07 51°19.855 2°57.274 59.3 11.3 58 10.5
2012-03-26 07:30:12 51°19.863 2°57.295 61.1 11.3 59 10.4
2012-03-26 07:30:17 51°19.871 2°57.316 62.8 11.2 61 10.4
2012-03-26 07:30:22 51°19.878 2°57.338 64.1 11.2 63 10.5
2012-03-26 07:30:27 51°19.885 2°57.36 65.2 11.1 62 10.4
2012-03-26 07:30:32 51°19.892 2°57.382 66.4 11.1 65 10.4
2012-03-26 07:30:37 51°19.898 2°57.404 67.2 11.1 64 10.4
2012-03-26 07:30:42 51°19.905 2°57.426 66.9 11 65 10.4
2012-03-26 07:30:47 51°19.911 2°57.449 67.5 11.1 65 10.3
2012-03-26 07:30:52 51°19.918 2°57.471 67.9 11.1 65 10.4
2012-03-26 07:30:57 51°19.925 2°57.493 68 11.1 65 10.3
2012-03-26 07:31:02 51°19.931 2°57.516 67.9 11.2 65 10.5
2012-03-26 07:31:07 51°19.938 2°57.538 67.6 11.2 64 10.4
2012-03-26 07:31:12 51°19.945 2°57.56 67.2 11.1 64 10.4
2012-03-26 07:31:17 51°19.952 2°57.582 66.4 11.2 62 10.4
2012-03-26 07:31:22 51°19.959 2°57.604 65.8 11.2 63 10.4
2012-03-26 07:31:27 51°19.966 2°57.626 65.8 11.1 62 10.4
2012-03-26 07:31:32 51°19.974 2°57.648 65.6 11.1 62 10.3
2012-03-26 07:31:37 51°19.981 2°57.67 65.7 11.2 62 10.3
2012-03-26 07:31:42 51°19.988 2°57.692 65.8 11.3 63 10.4
2012-03-26 07:31:47 51°19.995 2°57.714 65.9 11.3 62 10.3
2012-03-26 07:31:52 51°20.002 2°57.736 66.1 11.2 63 10.3
2012-03-26 07:31:57 51°20.009 2°57.758 66.5 11.1 63 10.3
2012-03-26 07:32:02 51°20.017 2°57.78 66.6 11.2 62 10.2
2012-03-26 07:32:07 51°20.024 2°57.802 66.2 11.3 63 10.4
2012-03-26 07:32:12 51°20.031 2°57.825 66.2 11.2 63 10.3
2012-03-26 07:32:17 51°20.038 2°57.846 66.2 11.2 63 10.3
2012-03-26 07:32:22 51°20.045 2°57.868 65.8 11.2 62 10.3
2012-03-26 07:32:27 51°20.053 2°57.89 65 11.2 61 10.3
2012-03-26 07:32:32 51°20.06 2°57.912 65.2 11.1 62 10.2
2012-03-26 07:32:37 51°20.068 2°57.933 63.4 11.3 58 10.2
2012-03-26 07:32:42 51°20.076 2°57.954 63.1 11.1 60 10.2
2012-03-26 07:32:47 51°20.084 2°57.975 62.5 11.2 57 10.2
2012-03-26 07:32:52 51°20.092 2°57.996 61.8 11.3 58 10.2
2012-03-26 07:32:57 51°20.101 2°58.017 61.8 11.2 58 10.2
2012-03-26 07:33:02 51°20.109 2°58.038 61.8 11.1 58 10.1
2012-03-26 07:33:07 51°20.117 2°58.059 61.9 11.1 58 10.2
2012-03-26 07:33:12 51°20.125 2°58.08 62 11.2 58 10.2
2012-03-26 07:33:17 51°20.133 2°58.102 62.4 11.2 59 10.2
2012-03-26 07:33:22 51°20.141 2°58.123 62.5 11.2 60 10.2
2012-03-26 07:33:27 51°20.149 2°58.145 63 11.2 59 10.2
2012-03-26 07:33:32 51°20.157 2°58.166 63.1 11.3 60 10.3
2012-03-26 07:33:37 51°20.165 2°58.188 63.6 11.3 59 10.1
2012-03-26 07:33:42 51°20.173 2°58.209 63.2 11.1 60 10.3
2012-03-26 07:33:47 51°20.18 2°58.23 63.6 11.1 60 10.1
2012-03-26 07:33:52 51°20.188 2°58.252 64.1 11.2 61 10
2012-03-26 07:33:57 51°20.196 2°58.274 64.2 11.3 60 10.1
2012-03-26 07:34:02 51°20.204 2°58.295 63.9 11.1 60 10.1
2012-03-26 07:34:07 51°20.211 2°58.316 64 11.2 60 10
2012-03-26 07:34:12 51°20.218 2°58.337 64 11.1 60 10.1
2012-03-26 07:34:17 51°20.226 2°58.358 63.9 11 61 10.2
2012-03-26 07:34:22 51°20.234 2°58.38 64.3 11.1 60 10.1
2012-03-26 07:34:27 51°20.241 2°58.402 64.5 11.2 61 10.1
2012-03-26 07:34:32 51°20.249 2°58.424 64.7 11.2 61 10.2
2012-03-26 07:34:37 51°20.256 2°58.445 64.7 11.1 61 10.1
2012-03-26 07:34:42 51°20.264 2°58.467 64.7 11.2 60 10.1
2012-03-26 07:34:47 51°20.272 2°58.488 64.9 11.2 61 10.1
2012-03-26 07:34:52 51°20.279 2°58.51 65.5 11.2 62 10.2
2012-03-26 07:34:57 51°20.286 2°58.532 66 11.2 63 10.1
2012-03-26 07:35:02 51°20.293 2°58.554 66.1 11 63 10
2012-03-26 07:35:07 51°20.299 2°58.576 66.7 11.1 64 10
2012-03-26 07:35:12 51°20.306 2°58.598 66.9 11.1 63 10.1
2012-03-26 07:35:17 51°20.313 2°58.62 67.5 11.1 65 9.9
2012-03-26 07:35:22 51°20.319 2°58.643 67.8 11.1 65 10.1
2012-03-26 07:35:27 51°20.325 2°58.665 68 11.1 65 10
2012-03-26 07:35:32 51°20.331 2°58.687 69 11 67 9.9
2012-03-26 07:35:37 51°20.336 2°58.71 70.8 11 69 9.9
2012-03-26 07:35:42 51°20.342 2°58.733 71.7 11.1 69 9.9
2012-03-26 07:35:47 51°20.347 2°58.756 73.1 11 72 9.8
2012-03-26 07:35:52 51°20.352 2°58.78 73.6 11.1 71 9.9
2012-03-26 07:35:57 51°20.357 2°58.803 73.7 11 73 10
2012-03-26 07:36:02 51°20.361 2°58.826 74.6 11.1 72 9.9
2012-03-26 07:36:07 51°20.366 2°58.849 74.5 11 71 9.8
2012-03-26 07:36:12 51°20.371 2°58.872 74.2 11 72 9.9
2012-03-26 07:36:17 51°20.376 2°58.895 74 10.9 71 9.9
2012-03-26 07:36:22 51°20.381 2°58.919 74 10.9 72 9.9
2012-03-26 07:36:27 51°20.385 2°58.942 74.2 11 71 9.8
2012-03-26 07:36:32 51°20.39 2°58.965 74.1 11 72 10
2012-03-26 07:36:37 51°20.395 2°58.987 73.5 10.9 70 9.8
2012-03-26 07:36:42 51°20.4 2°59.01 73.3 10.9 72 9.9
2012-03-26 07:36:47 51°20.405 2°59.033 73.9 10.9 71 9.8
2012-03-26 07:36:52 51°20.41 2°59.056 73.3 10.9 71 9.8
2012-03-26 07:36:57 51°20.415 2°59.08 73.4 11 71 9.9
2012-03-26 07:37:02 51°20.421 2°59.103 73 11.1 70 9.9
2012-03-26 07:37:07 51°20.426 2°59.125 72.7 11 70 9.9
2012-03-26 07:37:12 51°20.431 2°59.148 72.5 10.9 70 9.7
2012-03-26 07:37:17 51°20.436 2°59.17 72.5 10.9 69 9.7
2012-03-26 07:37:22 51°20.442 2°59.193 72.1 10.9 69 9.7
2012-03-26 07:37:27 51°20.447 2°59.215 71.9 10.9 68 9.7
2012-03-26 07:37:32 51°20.453 2°59.238 71.6 11 69 9.7
2012-03-26 07:37:37 51°20.458 2°59.26 71.6 10.9 68 9.8
2012-03-26 07:37:42 51°20.464 2°59.283 71.5 11 69 9.7
2012-03-26 07:37:47 51°20.469 2°59.306 72.3 11 69 9.8
2012-03-26 07:37:52 51°20.475 2°59.328 72.2 10.9 69 9.7
2012-03-26 07:37:57 51°20.48 2°59.352 72.2 11 69 9.6
2012-03-26 07:38:02 51°20.486 2°59.374 71.7 10.9 69 9.7
2012-03-26 07:38:07 51°20.491 2°59.396 71.4 10.9 68 9.7
2012-03-26 07:38:12 51°20.497 2°59.418 70.6 10.9 67 9.8
2012-03-26 07:38:17 51°20.503 2°59.44 70 10.9 67 9.7
2012-03-26 07:38:22 51°20.51 2°59.462 69.6 10.8 65 9.7
2012-03-26 07:38:27 51°20.516 2°59.484 69 10.8 65 9.7
2012-03-26 07:38:32 51°20.523 2°59.505 68.6 10.8 64 9.7
2012-03-26 07:38:37 51°20.529 2°59.528 68.4 10.9 64 9.7
2012-03-26 07:38:42 51°20.536 2°59.549 67.6 10.8 63 9.7
2012-03-26 07:38:47 51°20.543 2°59.57 66.6 10.8 62 9.8
2012-03-26 07:38:52 51°20.55 2°59.591 65.8 10.8 62 9.8
2012-03-26 07:38:57 51°20.557 2°59.612 65.4 10.9 61 9.7
2012-03-26 07:39:02 51°20.565 2°59.634 65.4 10.9 61 9.7
2012-03-26 07:39:07 51°20.572 2°59.654 64.7 10.9 60 9.8
2012-03-26 07:39:12 51°20.579 2°59.675 64.5 10.8 61 9.8
2012-03-26 07:39:17 51°20.587 2°59.696 64.6 10.8 61 9.8
2012-03-26 07:39:22 51°20.594 2°59.717 65.1 10.9 61 9.7
2012-03-26 07:39:27 51°20.601 2°59.738 65.4 10.9 62 9.7
2012-03-26 07:39:32 51°20.608 2°59.76 66 10.9 63 9.7
2012-03-26 07:39:37 51°20.614 2°59.782 67.8 10.8 66 9.7
2012-03-26 07:39:42 51°20.62 2°59.803 69.1 10.8 66 9.8
2012-03-26 07:39:47 51°20.626 2°59.826 69.9 10.9 67 9.6
2012-03-26 07:39:52 51°20.632 2°59.848 70.3 10.9 67 9.7
2012-03-26 07:39:58 51°20.639 2°59.874 70.5 10.8 67 9.8
2012-03-26 07:40:02 51°20.644 2°59.892 69.8 10.9 65 9.6
2012-03-26 07:40:07 51°20.651 2°59.914 69.2 10.9 66 9.6
2012-03-26 07:40:12 51°20.658 2°59.935 68.3 10.7 63 9.6
2012-03-26 07:40:17 51°20.663 2°59.957 68.3 10.8 66 9.6
2012-03-26 07:40:23 51°20.671 2°59.983 68.3 10.9 64 9.5
2012-03-26 07:40:27 51°20.676 3°0 68.1 10.9 65 9.6
2012-03-26 07:40:32 51°20.683 3°0.022 68.3 10.8 64 9.5
2012-03-26 07:40:38 51°20.691 3°0.047 68.5 10.7 64 -999
2012-03-26 07:40:43 51°20.697 3°0.069 68.2 10.7 64 9.6
2012-03-26 07:40:47 51°20.702 3°0.086 68.4 10.7 65 9.6
2012-03-26 07:40:52 51°20.708 3°0.108 69.1 10.8 66 9.5
2012-03-26 07:40:57 51°20.713 3°0.13 70.4 10.7 69 9.4
2012-03-26 07:41:02 51°20.718 3°0.153 71.9 10.8 70 9.4
2012-03-26 07:41:07 51°20.723 3°0.175 73.5 10.7 71 9.6
2012-03-26 07:41:12 51°20.727 3°0.197 74.1 10.7 73 9.5
2012-03-26 07:41:17 51°20.732 3°0.22 75.1 10.7 73 9.4
2012-03-26 07:41:22 51°20.736 3°0.243 76.3 10.7 76 9.5
2012-03-26 07:41:27 51°20.739 3°0.266 79.3 10.7 79 9.4
2012-03-26 07:41:32 51°20.741 3°0.29 81.2 10.7 80 9.4
2012-03-26 07:41:37 51°20.744 3°0.313 81.3 10.6 81 9.5
2012-03-26 07:41:42 51°20.745 3°0.336 82.5 10.6 83 9.5
2012-03-26 07:41:47 51°20.748 3°0.36 83 10.7 81 9.5
2012-03-26 07:41:52 51°20.749 3°0.383 83.4 10.7 82 9.4
2012-03-26 07:41:57 51°20.752 3°0.407 82.7 10.7 80 9.4
2012-03-26 07:42:02 51°20.755 3°0.43 81.3 10.7 79 9.4
2012-03-26 07:42:07 51°20.757 3°0.453 81.3 10.6 81 9.6
2012-03-26 07:42:12 51°20.76 3°0.476 80.7 10.7 77 9.4
2012-03-26 07:42:17 51°20.764 3°0.5 78.6 10.8 76 9.4
2012-03-26 07:42:22 51°20.768 3°0.522 77.2 10.7 74 9.5
2012-03-26 07:42:27 51°20.773 3°0.545 75.5 10.7 72 9.4
2012-03-26 07:42:32 51°20.777 3°0.567 74.4 10.6 71 9.4
2012-03-26 07:42:37 51°20.783 3°0.589 73 10.6 69 9.5
2012-03-26 07:42:42 51°20.788 3°0.611 72.3 10.7 69 9.5
2012-03-26 07:42:47 51°20.794 3°0.633 71 10.7 67 9.4
2012-03-26 07:42:52 51°20.799 3°0.655 70.8 10.7 69 9.3
2012-03-26 07:42:57 51°20.805 3°0.677 70.7 10.7 68 9.3
2012-03-26 07:43:02 51°20.81 3°0.699 71.4 10.7 69 9.3
2012-03-26 07:43:07 51°20.816 3°0.721 71.5 10.7 67 9.4
2012-03-26 07:43:12 51°20.822 3°0.743 71.1 10.7 67 9.3
2012-03-26 07:43:17 51°20.827 3°0.764 70.2 10.6 67 9.3
2012-03-26 07:43:22 51°20.832 3°0.787 71.1 10.7 69 9.5
2012-03-26 07:43:27 51°20.838 3°0.809 71.3 10.6 68 9.5
2012-03-26 07:43:32 51°20.842 3°0.831 72.5 10.6 72 9.3
2012-03-26 07:43:37 51°20.847 3°0.853 74.1 10.5 72 9.5
2012-03-26 07:43:42 51°20.851 3°0.876 74.7 10.5 74 9.3
2012-03-26 07:43:47 51°20.855 3°0.898 76.3 10.6 75 9.4
2012-03-26 07:43:52 51°20.858 3°0.921 77.8 10.6 78 9.1
2012-03-26 07:43:57 51°20.861 3°0.945 80.7 10.6 81 9.3
2012-03-26 07:44:02 51°20.863 3°0.968 82.3 10.5 81 9.3
2012-03-26 07:44:07 51°20.865 3°0.99 83.2 10.4 82 9
2012-03-26 07:44:12 51°20.866 3°1.014 84.5 10.5 84 -999
2012-03-26 07:44:18 51°20.868 3°1.042 84.8 10.5 84 -999
2012-03-26 07:44:23 51°20.869 3°1.065 86 10.5 86 9.1
2012-03-26 07:44:28 51°20.871 3°1.088 85.6 10.5 83 -999
2012-03-26 07:44:33 51°20.873 3°1.111 84.7 10.4 83 -999
2012-03-26 07:44:39 51°20.875 3°1.138 84.3 10.3 82 9.3